Time;durP1;ratioP1;P1;durP2;ratioP2;P2;SDS_P1;SDS_P2;PMS_P1;PMS_P2;Temp;Humidity;BMP_temperature;BMP_pressure;BME280_temperature;BME280_humidity;BME280_pressure;Samples;Min_cycle;Max_cycle;Signal;HPM_P1;HPM_P2
2021/08/31 00:00:12;;;;;;;1.67;0.98;;;;;;;20.66;51.92;100238.31;4959276;28;20377;-78
2021/08/31 00:02:37;;;;;;;1.13;0.70;;;;;;;20.65;51.86;100233.91;4958976;28;20095;-78
2021/08/31 00:05:03;;;;;;;2.20;2.00;;;;;;;20.61;52.12;100242.47;4959222;28;20148;-73
2021/08/31 00:07:29;;;;;;;0.90;0.70;;;;;;;20.55;52.24;100249.03;4958957;28;20430;-78
2021/08/31 00:09:54;;;;;;;0.68;0.68;;;;;;;20.62;51.66;100246.09;4959125;28;20112;-76
2021/08/31 00:12:20;;;;;;;0.93;0.90;;;;;;;20.51;51.86;100254.75;4958760;28;20371;-78
2021/08/31 00:14:46;;;;;;;0.90;0.90;;;;;;;20.47;52.58;100259.66;4958701;28;20086;-76
2021/08/31 00:17:13;;;;;;;3.78;1.15;;;;;;;20.47;52.68;100258.84;4958347;28;20027;-75
2021/08/31 00:19:38;;;;;;;1.20;1.10;;;;;;;20.53;52.11;100262.78;4958882;28;20054;-78
2021/08/31 00:22:04;;;;;;;1.52;1.25;;;;;;;20.47;52.68;100258.84;4958924;28;20053;-73
2021/08/31 00:24:33;;;;;;;4.40;1.67;;;;;;;20.41;53.00;100255.69;4959379;28;20022;-78
2021/08/31 00:26:58;;;;;;;3.83;1.23;;;;;;;20.51;52.79;100253.94;4958983;28;20031;-78
2021/08/31 00:29:23;;;;;;;2.03;1.83;;;;;;;20.48;52.77;100260.44;4960474;28;20449;-74
2021/08/31 00:31:49;;;;;;;1.02;0.90;;;;;;;20.42;52.52;100260.91;4963715;28;20103;-75
2021/08/31 00:34:17;;;;;;;1.20;1.10;;;;;;;20.54;52.07;100267.22;4964101;28;20065;-75
2021/08/31 00:36:42;;;;;;;0.82;0.82;;;;;;;20.47;52.32;100275.81;4961140;28;20534;-74
2021/08/31 00:39:08;;;;;;;1.08;0.98;;;;;;;20.43;52.50;100270.19;4959204;28;20230;-78
2021/08/31 00:41:36;;;;;;;0.98;0.98;;;;;;;20.49;52.50;100273.34;4958724;28;20462;-79
2021/08/31 00:44:03;;;;;;;1.08;0.98;;;;;;;20.40;52.49;100269.03;4959306;28;20105;-79
2021/08/31 00:46:29;;;;;;;1.10;1.00;;;;;;;20.36;52.62;100268.28;4959222;28;20046;-79
2021/08/31 00:48:55;;;;;;;2.65;1.23;;;;;;;20.31;52.78;100274.41;4959152;28;20174;-79
2021/08/31 00:51:27;;;;;;;0.82;0.82;;;;;;;20.42;52.21;100274.25;4959156;28;20113;-78
2021/08/31 00:53:53;;;;;;;2.72;1.80;;;;;;;20.31;52.46;100273.63;4958729;28;20481;-79
2021/08/31 00:56:20;;;;;;;0.60;0.60;;;;;;;20.30;52.12;100272.81;4958255;28;20034;-79
2021/08/31 00:58:46;;;;;;;0.82;0.80;;;;;;;20.28;52.30;100277.28;4958117;28;20097;-75
2021/08/31 01:01:12;;;;;;;0.88;0.75;;;;;;;20.40;52.09;100269.03;4958103;28;20023;-78
2021/08/31 01:03:40;;;;;;;1.33;1.20;;;;;;;20.31;51.80;100271.59;4958083;28;20031;-81
2021/08/31 01:06:06;;;;;;;0.80;0.80;;;;;;;20.28;52.66;100275.25;4958154;28;20121;-75
2021/08/31 01:08:32;;;;;;;1.10;1.00;;;;;;;20.17;52.93;100271.78;4957996;28;20450;-75
2021/08/31 01:11:00;;;;;;;1.00;1.00;;;;;;;20.22;53.11;100270.50;4958581;28;20093;-75
2021/08/31 01:13:27;;;;;;;1.13;1.02;;;;;;;20.31;52.77;100268.75;4958275;28;20053;-79
2021/08/31 01:15:53;;;;;;;1.70;1.10;;;;;;;20.23;53.18;100266.47;4958306;28;20031;-79
2021/08/31 01:18:21;;;;;;;1.20;1.10;;;;;;;20.27;53.20;100256.69;4957888;28;20490;-78
2021/08/31 01:20:57;;;;;;;1.15;1.08;;;;;;;20.26;53.18;100263.59;4957819;28;20469;-77
2021/08/31 01:23:25;;;;;;;1.83;1.05;;;;;;;20.25;53.22;100259.16;4957689;28;20097;-75
2021/08/31 01:25:54;;;;;;;1.50;1.13;;;;;;;20.33;53.01;100249.34;4957744;28;20026;-78
2021/08/31 01:28:23;;;;;;;1.10;1.00;;;;;;;20.23;53.57;100255.16;4957546;28;20379;-79
2021/08/31 01:30:50;;;;;;;1.38;1.20;;;;;;;20.23;54.05;100249.50;4957673;28;20030;-74
2021/08/31 01:33:17;;;;;;;1.83;1.40;;;;;;;20.16;54.52;100247.59;4957939;28;20092;-78
2021/08/31 01:35:43;;;;;;;1.10;1.00;;;;;;;20.15;54.56;100249.63;4958652;28;20406;-76
2021/08/31 01:38:09;;;;;;;1.63;1.52;;;;;;;20.16;54.78;100250.41;4957561;28;20043;-79
2021/08/31 01:40:35;;;;;;;3.63;1.17;;;;;;;20.08;54.53;100220.69;4957499;28;20126;-77
2021/08/31 01:43:00;;;;;;;1.77;1.20;;;;;;;20.18;54.96;100245.13;4957631;28;20034;-77
2021/08/31 01:45:26;;;;;;;1.20;1.10;;;;;;;20.11;54.99;100246.06;4957496;28;20492;-78
2021/08/31 01:47:51;;;;;;;2.55;1.00;;;;;;;20.09;54.88;100250.53;4957650;28;20041;-80
2021/08/31 01:50:17;;;;;;;2.58;1.17;;;;;;;19.97;55.79;100249.06;4958066;28;20422;-77
2021/08/31 01:52:45;;;;;;;1.55;1.10;;;;;;;20.03;55.44;100250.22;4957485;28;20121;-77
2021/08/31 01:55:13;;;;;;;3.83;1.20;;;;;;;20.04;55.51;100248.19;4957504;28;20027;-80
2021/08/31 01:57:39;;;;;;;1.50;1.40;;;;;;;20.03;55.41;100252.25;4974944;28;20034;-74
2021/08/31 02:00:05;;;;;;;1.40;1.00;;;;;;;20.02;55.81;100248.59;4957886;28;20031;-73
2021/08/31 02:02:30;;;;;;;1.38;1.27;;;;;;;20.19;56.67;100245.94;4957365;28;20038;-75
2021/08/31 02:04:58;;;;;;;1.13;1.02;;;;;;;20.15;55.54;100240.34;4957488;28;20533;-77
2021/08/31 02:07:24;;;;;;;3.38;1.73;;;;;;;20.21;56.00;100241.47;4957423;28;20089;-75
2021/08/31 02:09:49;;;;;;;1.20;1.10;;;;;;;20.10;56.02;100238.00;4957952;28;20404;-79
2021/08/31 02:12:15;;;;;;;1.17;1.17;;;;;;;20.14;55.74;100235.94;4957357;28;20023;-79
2021/08/31 02:14:40;;;;;;;1.33;1.17;;;;;;;20.10;56.17;100229.53;4957936;28;20045;-76
2021/08/31 02:17:06;;;;;;;1.35;1.25;;;;;;;20.05;56.42;100232.84;4957579;28;20454;-77
2021/08/31 02:19:33;;;;;;;1.35;1.23;;;;;;;19.99;56.47;100217.59;4957171;28;20395;-79
2021/08/31 02:21:58;;;;;;;1.83;1.30;;;;;;;20.14;56.71;100235.94;4957352;28;20062;-74
2021/08/31 02:24:24;;;;;;;1.30;1.20;;;;;;;20.06;57.07;100237.25;4957052;28;20065;-75
2021/08/31 02:26:49;;;;;;;1.48;1.05;;;;;;;20.01;57.27;100232.88;4957469;28;20038;-77
2021/08/31 02:29:15;;;;;;;1.17;1.08;;;;;;;19.99;57.39;100237.38;4957127;28;20461;-78
2021/08/31 02:31:41;;;;;;;1.40;1.10;;;;;;;20.01;57.61;100232.09;4957194;28;20027;-78
2021/08/31 02:34:06;;;;;;;1.67;1.05;;;;;;;20.12;57.83;100232.72;4957093;28;20031;-76
2021/08/31 02:36:32;;;;;;;2.00;1.23;;;;;;;20.07;57.70;100236.81;4957244;28;20030;-80
2021/08/31 02:38:57;;;;;;;1.42;1.10;;;;;;;20.09;57.55;100236.41;4957373;28;20093;-78
2021/08/31 02:41:23;;;;;;;1.00;1.00;;;;;;;20.04;57.66;100228.44;4958772;28;20038;-75
2021/08/31 02:43:48;;;;;;;4.97;4.20;;;;;;;20.06;57.63;100229.59;4960713;28;20073;-80
2021/08/31 02:46:14;;;;;;;26.50;21.20;;;;;;;20.02;57.74;100236.50;4960836;28;20054;-76
2021/08/31 02:48:40;;;;;;;25.70;22.25;;;;;;;20.15;57.57;100226.22;4960751;28;20066;-75
2021/08/31 02:51:06;;;;;;;27.00;22.40;;;;;;;20.09;57.75;100239.25;4960541;28;20026;-79
2021/08/31 02:53:32;;;;;;;9.13;7.90;;;;;;;20.06;57.93;100235.22;4960889;28;20050;-76
2021/08/31 02:55:58;;;;;;;7.20;6.60;;;;;;;20.08;58.13;100231.97;4960253;28;20378;-80
2021/08/31 02:58:23;;;;;;;4.78;4.38;;;;;;;19.97;58.00;100226.47;4960675;28;20050;-76
2021/08/31 03:01:04;;;;;;;4.75;4.35;;;;;;;19.96;58.47;100219.25;4960417;28;20503;-76
2021/08/31 03:03:30;;;;;;;5.05;4.65;;;;;;;19.91;58.52;100221.75;4960055;28;20154;-77
2021/08/31 03:05:55;;;;;;;5.80;5.05;;;;;;;19.92;58.48;100217.69;4960277;28;20031;-81
2021/08/31 03:08:21;;;;;;;6.20;5.60;;;;;;;19.98;58.43;100222.47;4960384;28;20031;-75
2021/08/31 03:10:46;;;;;;;4.70;4.22;;;;;;;20.08;58.32;100217.84;4960289;28;20062;-80
2021/08/31 03:13:12;;;;;;;2.35;1.80;;;;;;;20.09;58.39;100222.31;4960432;28;20031;-77
2021/08/31 03:15:37;;;;;;;1.70;1.60;;;;;;;19.94;58.76;100218.09;4960076;28;20026;-77
2021/08/31 03:18:03;;;;;;;1.80;1.52;;;;;;;19.92;58.67;100212.88;4960162;28;20045;-77
2021/08/31 03:20:28;;;;;;;1.60;1.35;;;;;;;19.85;59.03;100219.41;4959815;28;20129;-79
2021/08/31 03:22:54;;;;;;;1.85;1.30;;;;;;;19.86;58.99;100225.84;4960566;28;20039;-78
2021/08/31 03:25:20;;;;;;;1.90;1.80;;;;;;;19.82;58.96;100225.91;4959733;28;20375;-78
2021/08/31 03:27:45;;;;;;;1.80;1.70;;;;;;;19.81;58.83;100227.13;4960220;28;20035;-76
2021/08/31 03:30:11;;;;;;;1.95;1.73;;;;;;;19.79;59.33;100221.09;4959915;28;20422;-78
2021/08/31 03:32:38;;;;;;;2.70;2.50;;;;;;;19.81;59.55;100217.84;4960068;28;20070;-77
2021/08/31 03:35:04;;;;;;;3.13;2.70;;;;;;;19.81;59.53;100224.28;4977145;28;20029;-77
2021/08/31 03:37:30;;;;;;;2.53;2.33;;;;;;;19.84;60.24;100228.31;4959437;28;20410;-80
2021/08/31 03:39:56;;;;;;;2.40;1.40;;;;;;;19.82;59.24;100228.75;4960331;28;20475;-79
2021/08/31 03:42:22;;;;;;;1.50;1.40;;;;;;;19.85;59.48;100227.88;4960144;28;20062;-81
2021/08/31 03:44:47;;;;;;;1.77;1.67;;;;;;;19.80;59.73;100222.69;4959578;28;20023;-76
2021/08/31 03:47:13;;;;;;;5.78;5.10;;;;;;;19.83;59.83;100226.72;4959282;28;20468;-75
2021/08/31 03:49:38;;;;;;;11.52;8.25;;;;;;;19.79;59.81;100223.94;4959543;28;20035;-77
2021/08/31 03:52:04;;;;;;;6.95;4.82;;;;;;;19.75;60.31;100226.00;4959784;28;20093;-76
2021/08/31 03:54:30;;;;;;;4.60;4.05;;;;;;;19.80;60.06;100224.72;4959652;28;20438;-76
2021/08/31 03:56:55;;;;;;;2.00;1.90;;;;;;;19.68;60.65;100226.09;4959833;28;20421;-78
2021/08/31 03:59:21;;;;;;;4.93;2.60;;;;;;;19.62;61.44;100224.97;4959406;28;20034;-75
2021/08/31 04:01:46;;;;;;;2.70;1.70;;;;;;;19.60;61.20;100218.94;4959365;28;20382;-79
2021/08/31 04:04:12;;;;;;;2.75;1.50;;;;;;;19.68;61.34;100226.09;4959164;28;20023;-79
2021/08/31 04:06:37;;;;;;;2.17;1.98;;;;;;;19.73;61.95;100230.47;4959031;28;20482;-78
2021/08/31 04:09:03;;;;;;;2.53;1.70;;;;;;;19.70;62.25;100234.13;4959256;28;20038;-77
2021/08/31 04:11:28;;;;;;;2.58;1.85;;;;;;;19.65;62.52;100235.41;4958927;28;20031;-75
2021/08/31 04:13:54;;;;;;;1.77;1.23;;;;;;;19.67;62.49;100224.50;4958877;28;20031;-77
2021/08/31 04:16:19;;;;;;;8.75;1.75;;;;;;;19.67;62.53;100232.97;4959245;28;20046;-80
2021/08/31 04:18:45;;;;;;;1.30;1.20;;;;;;;19.72;62.05;100232.50;4958604;28;20502;-80
2021/08/31 04:21:11;;;;;;;1.67;1.42;;;;;;;19.75;62.17;100234.47;4958969;28;20478;-79
2021/08/31 04:23:36;;;;;;;1.40;1.30;;;;;;;19.77;61.99;100234.88;4958536;28;20034;-80
2021/08/31 04:26:02;;;;;;;4.22;1.25;;;;;;;19.81;62.01;100246.88;4958555;28;20124;-74
2021/08/31 04:28:27;;;;;;;4.72;1.42;;;;;;;19.82;62.10;100242.84;4958647;28;20031;-77
2021/08/31 04:30:53;;;;;;;2.90;1.58;;;;;;;19.82;62.34;100242.84;4958662;28;20047;-79
2021/08/31 04:33:18;;;;;;;1.42;1.25;;;;;;;19.88;62.25;100249.63;4958896;28;20121;-80
2021/08/31 04:35:46;;;;;;;1.77;1.10;;;;;;;19.95;61.97;100242.28;4958923;28;20031;-73
2021/08/31 04:38:14;;;;;;;1.55;1.30;;;;;;;19.91;62.33;100245.13;4958452;28;20031;-76
2021/08/31 04:40:39;;;;;;;1.42;0.82;;;;;;;19.97;62.24;100253.94;4958608;28;20035;-80
2021/08/31 04:43:05;;;;;;;2.85;1.05;;;;;;;19.99;62.29;100254.31;4958192;28;20053;-78
2021/08/31 04:45:30;;;;;;;1.58;0.85;;;;;;;19.97;62.06;100253.94;4958290;28;20030;-76
2021/08/31 04:47:56;;;;;;;1.77;1.20;;;;;;;19.96;62.02;100246.69;4957757;28;20034;-75
2021/08/31 04:50:21;;;;;;;1.48;1.33;;;;;;;19.90;61.77;100246.38;4958416;28;20027;-75
2021/08/31 04:52:47;;;;;;;0.68;0.68;;;;;;;20.50;59.67;100244.66;4958247;28;20038;-78
2021/08/31 04:55:13;;;;;;;1.35;1.17;;;;;;;21.23;57.39;100245.75;4958001;28;20039;-78
2021/08/31 04:57:40;;;;;;;3.75;1.10;;;;;;;21.85;55.00;100238.41;4958053;28;20118;-76
2021/08/31 05:00:06;;;;;;;1.33;1.13;;;;;;;22.49;53.46;100236.94;4958362;28;20492;-75
2021/08/31 05:02:33;;;;;;;1.05;0.90;;;;;;;23.12;51.01;100244.22;4975570;28;20031;-74
2021/08/31 05:04:59;;;;;;;2.63;1.33;;;;;;;23.75;49.90;100234.31;4957013;28;20027;-75
2021/08/31 05:07:24;;;;;;;4.00;1.10;;;;;;;24.31;48.01;100230.91;4957703;28;20034;-78
2021/08/31 05:09:49;;;;;;;2.60;1.20;;;;;;;24.68;46.54;100235.00;4957738;28;20093;-78
2021/08/31 05:12:15;;;;;;;0.90;0.90;;;;;;;25.13;45.41;100235.88;4957781;28;20035;-80
2021/08/31 05:14:41;;;;;;;1.50;1.10;;;;;;;25.65;44.20;100240.06;4957707;28;20031;-77
2021/08/31 05:17:09;;;;;;;2.05;1.02;;;;;;;26.01;43.20;100240.31;4957593;28;20093;-75
2021/08/31 05:19:34;;;;;;;2.65;1.20;;;;;;;26.59;41.47;100238.78;4957636;28;20427;-75
2021/08/31 05:22:04;;;;;;;4.65;1.40;;;;;;;27.12;40.82;100242.22;4957872;28;20062;-76
2021/08/31 05:24:32;;;;;;;3.10;1.35;;;;;;;27.57;39.52;100243.44;4957435;28;20037;-75
2021/08/31 05:26:58;;;;;;;2.25;1.27;;;;;;;28.07;38.54;100246.00;4958027;28;20023;-75
2021/08/31 05:29:26;;;;;;;2.92;1.50;;;;;;;28.35;37.54;100243.88;4957530;28;20053;-77
2021/08/31 05:31:53;;;;;;;1.48;0.80;;;;;;;28.60;36.91;100246.25;4957460;28;20097;-77
2021/08/31 05:34:18;;;;;;;0.73;0.73;;;;;;;29.02;36.28;100253.97;4957879;28;20027;-75
2021/08/31 05:36:44;;;;;;;0.85;0.80;;;;;;;29.17;35.63;100251.94;4957282;28;20359;-79
2021/08/31 05:39:09;;;;;;;3.58;1.20;;;;;;;29.21;36.19;100258.28;4957545;28;20122;-77
2021/08/31 05:41:37;;;;;;;1.35;0.95;;;;;;;29.61;34.94;100262.69;4957958;28;20039;-76
2021/08/31 05:44:03;;;;;;;1.17;1.08;;;;;;;29.71;34.88;100260.53;4957351;28;20034;-79
2021/08/31 05:46:29;;;;;;;2.88;1.20;;;;;;;30.03;34.01;100267.34;4958091;28;20026;-79
2021/08/31 05:48:55;;;;;;;1.10;1.10;;;;;;;30.50;33.03;100274.13;4957636;28;20430;-79
2021/08/31 05:51:21;;;;;;;1.60;1.50;;;;;;;29.98;33.83;100268.03;4957487;28;20039;-77
2021/08/31 05:53:46;;;;;;;1.45;1.08;;;;;;;30.78;32.02;100272.47;4957532;28;20382;-76
2021/08/31 05:56:14;;;;;;;1.02;0.80;;;;;;;31.11;31.35;100277.09;4941710;28;20393;-76
2021/08/31 05:58:39;;;;;;;0.80;0.80;;;;;;;31.29;31.08;100271.06;4957580;28;20035;-76
2021/08/31 06:01:05;;;;;;;1.80;1.70;;;;;;;30.89;31.93;100282.53;4957760;28;20030;-80
2021/08/31 06:03:31;;;;;;;1.92;1.30;;;;;;;30.42;32.19;100272.97;4957182;28;20031;-79
2021/08/31 06:05:56;;;;;;;2.28;0.93;;;;;;;30.08;33.16;100283.88;4957408;28;20031;-80
2021/08/31 06:08:22;;;;;;;0.80;0.80;;;;;;;30.16;32.80;100282.22;4957258;28;20026;-79
2021/08/31 06:10:47;;;;;;;1.02;0.90;;;;;;;30.53;32.72;100281.75;4957173;28;20031;-79
2021/08/31 06:13:13;;;;;;;1.15;0.82;;;;;;;30.50;32.84;100277.00;4974531;28;20071;-78
2021/08/31 06:15:41;;;;;;;1.55;0.90;;;;;;;30.32;33.22;100285.84;4958964;28;20621;-77
2021/08/31 06:18:07;;;;;;;2.72;1.25;;;;;;;30.49;34.06;100284.81;4961094;28;20124;-74
2021/08/31 06:20:36;;;;;;;5.47;1.40;;;;;;;30.40;33.91;100284.94;4961377;28;20429;-78
2021/08/31 06:23:01;;;;;;;1.38;1.27;;;;;;;30.08;34.91;100286.72;4961035;28;20101;-76
2021/08/31 06:25:30;;;;;;;2.63;1.00;;;;;;;29.30;36.52;100288.13;4960791;28;20470;-73
2021/08/31 06:27:55;;;;;;;2.65;1.27;;;;;;;28.76;38.01;100290.06;4960685;28;20039;-79
2021/08/31 06:30:21;;;;;;;2.55;1.00;;;;;;;28.97;37.49;100284.06;4960233;28;20033;-75
2021/08/31 06:32:47;;;;;;;2.38;1.33;;;;;;;28.88;37.52;100286.19;4960827;28;20038;-76
2021/08/31 06:35:13;;;;;;;1.88;1.73;;;;;;;28.70;37.93;100287.06;4960442;28;20019;-77
2021/08/31 06:37:41;;;;;;;2.55;1.27;;;;;;;29.42;36.27;100295.66;4960512;28;20035;-75
2021/08/31 06:40:08;;;;;;;3.67;1.30;;;;;;;29.43;36.37;100286.56;4960636;28;20469;-78
2021/08/31 06:42:33;;;;;;;6.35;1.45;;;;;;;30.04;35.82;100294.75;4960424;28;20034;-78
2021/08/31 06:45:01;;;;;;;1.67;1.30;;;;;;;30.13;34.95;100294.69;4960279;28;20134;-74
2021/08/31 06:47:26;;;;;;;2.00;1.20;;;;;;;30.72;34.60;100291.72;4960484;28;20042;-78
2021/08/31 06:49:52;;;;;;;1.80;0.90;;;;;;;30.22;35.86;100294.56;4959921;28;20406;-78
2021/08/31 06:52:17;;;;;;;1.10;0.98;;;;;;;30.41;35.06;100294.34;4959914;28;20101;-77
2021/08/31 06:54:45;;;;;;;1.13;0.93;;;;;;;30.45;34.97;100300.66;4960041;28;20125;-75
2021/08/31 06:57:11;;;;;;;1.20;1.10;;;;;;;30.76;35.06;100298.03;4959921;28;20027;-74
2021/08/31 06:59:36;;;;;;;1.52;1.00;;;;;;;30.81;34.54;100287.13;4960030;28;20038;-76
2021/08/31 07:02:02;;;;;;;1.08;0.75;;;;;;;31.04;34.68;100294.75;4960115;28;20478;-75
2021/08/31 07:04:27;;;;;;;2.13;0.90;;;;;;;31.37;33.30;100290.72;4959843;28;20473;-76
2021/08/31 07:06:53;;;;;;;2.13;0.90;;;;;;;30.16;35.74;100293.69;4959756;28;20117;-74
2021/08/31 07:09:20;;;;;;;2.83;1.00;;;;;;;30.78;34.52;100292.56;4959742;28;20117;-76
2021/08/31 07:11:49;;;;;;;0.60;0.60;;;;;;;30.72;34.65;100291.72;4976950;28;20035;-76
2021/08/31 07:14:15;;;;;;;0.60;0.60;;;;;;;30.41;34.83;100288.59;4959764;28;20029;-74
2021/08/31 07:16:40;;;;;;;1.10;0.70;;;;;;;30.39;35.34;100288.31;4959691;28;20027;-78
2021/08/31 07:19:06;;;;;;;1.08;0.80;;;;;;;30.30;35.34;100294.16;4959361;28;20047;-76
2021/08/31 07:21:31;;;;;;;1.40;1.30;;;;;;;30.46;35.75;100300.16;4959543;28;20027;-78
2021/08/31 07:23:57;;;;;;;3.30;1.90;;;;;;;29.97;36.42;100295.94;4959607;28;20042;-74
2021/08/31 07:26:25;;;;;;;5.35;1.52;;;;;;;29.36;37.95;100292.69;4958823;28;20031;-75
2021/08/31 07:28:50;;;;;;;3.80;1.65;;;;;;;29.41;37.99;100296.97;4960045;28;20062;-77
2021/08/31 07:31:20;;;;;;;6.47;2.53;;;;;;;29.45;38.16;100294.66;4959471;28;20493;-77
2021/08/31 07:33:46;;;;;;;4.43;1.48;;;;;;;29.50;37.77;100309.09;4959412;28;20039;-75
2021/08/31 07:36:11;;;;;;;1.42;1.10;;;;;;;29.60;37.99;100306.19;4959298;28;20118;-78
2021/08/31 07:38:37;;;;;;;1.85;1.45;;;;;;;29.90;37.04;100298.44;4959819;28;20136;-77
2021/08/31 07:41:03;;;;;;;3.03;0.82;;;;;;;30.27;36.51;100308.22;4959308;28;20105;-74
2021/08/31 07:43:29;;;;;;;1.35;1.05;;;;;;;30.31;36.36;100302.28;4959726;28;20031;-76
2021/08/31 07:45:56;;;;;;;1.80;1.10;;;;;;;31.14;35.04;100309.78;4959423;28;20026;-75
2021/08/31 07:48:22;;;;;;;2.45;1.08;;;;;;;31.29;34.41;100317.06;4958858;28;20031;-74
2021/08/31 07:50:47;;;;;;;1.17;0.85;;;;;;;29.80;36.47;100314.13;4959101;28;20034;-78
2021/08/31 07:53:13;;;;;;;1.95;0.90;;;;;;;30.11;36.58;100313.66;4959127;28;20038;-74
2021/08/31 07:55:42;;;;;;;1.73;1.10;;;;;;;29.41;37.67;100308.41;4959020;28;20030;-75
2021/08/31 07:58:08;;;;;;;0.77;0.77;;;;;;;29.67;36.14;100308.66;4959541;28;20485;-77
2021/08/31 08:00:34;;;;;;;0.70;0.70;;;;;;;30.97;33.99;100309.56;4959293;28;20030;-76
2021/08/31 08:03:01;;;;;;;1.05;0.93;;;;;;;30.99;32.68;100304.09;4976226;28;20042;-79
2021/08/31 08:05:26;;;;;;;1.23;1.00;;;;;;;30.63;33.97;100306.19;4959006;28;20034;-78
2021/08/31 08:07:52;;;;;;;1.00;0.90;;;;;;;31.04;32.55;100312.00;4958573;28;20034;-76
2021/08/31 08:10:20;;;;;;;1.20;1.20;;;;;;;31.45;31.62;100314.88;4958776;28;20086;-77
2021/08/31 08:12:48;;;;;;;1.17;1.05;;;;;;;31.27;32.15;100318.88;4959276;28;20031;-76
2021/08/31 08:15:15;;;;;;;8.70;1.60;;;;;;;31.22;32.27;100314.59;4958633;28;20114;-74
2021/08/31 08:17:40;;;;;;;2.22;0.93;;;;;;;31.16;32.39;100322.34;4959076;28;20042;-77
2021/08/31 08:20:10;;;;;;;1.48;1.25;;;;;;;31.45;31.63;100312.00;4958163;28;20536;-76
2021/08/31 08:22:36;;;;;;;3.72;1.42;;;;;;;32.05;30.73;100324.69;4956378;28;20447;-78
2021/08/31 08:25:03;;;;;;;1.92;1.42;;;;;;;31.49;31.40;100318.34;4958609;28;20027;-77
2021/08/31 08:27:28;;;;;;;1.50;1.40;;;;;;;31.83;30.69;100319.50;4958741;28;20130;-78
2021/08/31 08:29:56;;;;;;;2.17;1.60;;;;;;;32.36;30.84;100317.41;4958818;28;20066;-77
2021/08/31 08:32:21;;;;;;;1.48;1.30;;;;;;;32.85;29.95;100327.69;4958192;28;20027;-75
2021/08/31 08:34:47;;;;;;;1.75;1.30;;;;;;;33.33;29.45;100321.91;4958257;28;20034;-75
2021/08/31 08:37:13;;;;;;;1.98;1.80;;;;;;;33.79;28.12;100335.22;4958777;28;20130;-76
2021/08/31 08:39:39;;;;;;;1.70;1.60;;;;;;;32.53;29.63;100313.34;4958517;28;20065;-73
2021/08/31 08:42:05;;;;;;;2.22;1.70;;;;;;;31.64;31.31;100324.78;4958192;28;20466;-77
2021/08/31 08:44:32;;;;;;;4.65;2.55;;;;;;;32.15;31.28;100323.22;4958091;28;20043;-74
2021/08/31 08:46:57;;;;;;;4.47;2.47;;;;;;;32.14;31.28;100327.41;4975830;28;20023;-80
2021/08/31 08:49:23;;;;;;;3.67;2.35;;;;;;;32.04;31.50;100328.88;4958292;28;20046;-74
2021/08/31 08:51:52;;;;;;;3.25;1.98;;;;;;;31.98;31.28;100319.41;4957944;28;20098;-75
2021/08/31 08:54:18;;;;;;;2.10;1.90;;;;;;;31.34;32.30;100329.13;4958007;28;20027;-72
2021/08/31 08:56:44;;;;;;;5.13;2.25;;;;;;;31.30;32.68;100326.47;4958460;28;20038;-73
2021/08/31 08:59:10;;;;;;;3.85;2.30;;;;;;;31.37;32.20;100331.78;4957571;28;20484;-74
2021/08/31 09:01:48;;;;;;;4.40;2.33;;;;;;;32.02;30.98;100323.63;4957801;28;20031;-74
2021/08/31 09:04:21;;;;;;;2.90;2.38;;;;;;;31.89;30.86;100320.34;4957629;28;20026;-74
2021/08/31 09:06:48;;;;;;;2.22;1.77;;;;;;;32.56;30.32;100320.97;4975762;28;20042;-72
2021/08/31 09:09:13;;;;;;;2.05;1.75;;;;;;;32.68;30.34;100316.06;4958041;28;20061;-73
2021/08/31 09:11:46;;;;;;;1.83;1.52;;;;;;;31.53;31.67;100313.13;4957705;28;20046;-72
2021/08/31 09:14:28;;;;;;;3.47;2.05;;;;;;;31.07;32.44;100304.47;4957605;28;20035;-73
2021/08/31 09:17:04;;;;;;;2.10;1.88;;;;;;;31.46;31.52;100308.63;4957633;28;20026;-73
2021/08/31 09:19:43;;;;;;;4.18;1.60;;;;;;;30.57;32.99;100315.97;4957339;28;20137;-73
2021/08/31 09:22:21;;;;;;;3.05;1.50;;;;;;;30.95;32.75;100312.16;4957610;28;20065;-72
2021/08/31 09:25:01;;;;;;;1.90;1.70;;;;;;;32.00;31.04;100302.41;4957397;28;20035;-73
2021/08/31 09:27:38;;;;;;;1.80;1.70;;;;;;;33.16;29.54;100315.31;4957417;28;20026;-74
2021/08/31 09:30:25;;;;;;;2.17;1.50;;;;;;;34.14;27.70;100313.75;4957535;28;20036;-73
2021/08/31 09:33:12;;;;;;;3.10;1.58;;;;;;;34.74;26.09;100313.50;4957860;28;20033;-75
2021/08/31 09:35:43;;;;;;;1.38;1.27;;;;;;;34.80;25.04;100317.94;4974302;28;20151;-75
2021/08/31 09:38:11;;;;;;;2.80;1.40;;;;;;;35.12;24.93;100314.72;4957975;28;20093;-74
2021/08/31 09:40:46;;;;;;;1.40;1.20;;;;;;;35.40;25.22;100306.69;4957565;28;20455;-74
2021/08/31 09:43:22;;;;;;;1.10;1.10;;;;;;;35.87;24.19;100312.50;4957839;28;20030;-75
2021/08/31 09:45:50;;;;;;;0.70;0.70;;;;;;;34.98;25.46;100302.13;4957840;28;20371;-73
2021/08/31 09:48:19;;;;;;;2.83;0.80;;;;;;;32.99;29.00;100302.91;4957396;28;20031;-74
2021/08/31 09:51:03;;;;;;;2.00;0.90;;;;;;;33.03;29.17;100304.25;4962221;28;20495;-74
2021/08/31 09:53:29;;;;;;;1.08;0.70;;;;;;;33.57;28.15;100295.56;4964110;28;20117;-74
2021/08/31 09:56:01;;;;;;;1.02;0.70;;;;;;;34.00;27.42;100292.50;4963190;28;20406;-73
2021/08/31 09:58:27;;;;;;;1.90;0.95;;;;;;;32.68;29.63;100295.91;4963512;28;20118;-75
2021/08/31 10:00:54;;;;;;;0.98;0.75;;;;;;;32.93;28.82;100287.69;4981335;28;20154;-72
2021/08/31 10:03:22;;;;;;;2.72;1.08;;;;;;;33.80;27.08;100290.63;4963317;28;20557;-74
2021/08/31 10:05:49;;;;;;;0.63;0.63;;;;;;;33.32;27.15;100291.53;4963507;28;20041;-74
2021/08/31 10:08:17;;;;;;;0.65;0.65;;;;;;;33.42;26.68;100288.44;4963461;28;20023;-73
2021/08/31 10:10:45;;;;;;;0.98;0.77;;;;;;;33.21;26.47;100284.94;4963343;28;20050;-73
2021/08/31 10:13:13;;;;;;;1.10;0.60;;;;;;;32.17;27.63;100291.81;4963912;28;20478;-74
2021/08/31 10:15:41;;;;;;;0.90;0.80;;;;;;;32.94;25.59;100280.63;4963703;28;20041;-73
2021/08/31 10:18:10;;;;;;;0.93;0.60;;;;;;;33.98;24.93;100274.13;4963344;28;20041;-73
2021/08/31 10:20:44;;;;;;;0.85;0.55;;;;;;;33.36;24.83;100276.88;4963438;28;20509;-73
2021/08/31 10:23:13;;;;;;;2.17;0.73;;;;;;;33.24;24.54;100273.16;4980413;28;20035;-74
2021/08/31 10:25:40;;;;;;;0.70;0.70;;;;;;;33.02;24.59;100262.31;4964100;28;20133;-73
2021/08/31 10:28:32;;;;;;;1.17;0.73;;;;;;;33.67;23.49;100275.91;4963244;28;20031;-74
2021/08/31 10:31:00;;;;;;;0.60;0.57;;;;;;;33.20;23.78;100266.84;4958956;28;20493;-74
2021/08/31 10:33:33;;;;;;;0.95;0.65;;;;;;;33.79;23.35;100276.72;4963318;28;20027;-73
2021/08/31 10:36:00;;;;;;;0.60;0.60;;;;;;;33.22;23.42;100275.75;4962922;28;20101;-73
2021/08/31 10:38:51;;;;;;;0.50;0.50;;;;;;;33.62;23.59;100271.72;4963690;28;20027;-73
2021/08/31 10:41:47;;;;;;;1.10;1.00;;;;;;;33.55;22.70;100275.09;4960736;28;20050;-74
2021/08/31 10:44:34;;;;;;;3.08;0.70;;;;;;;34.17;21.67;100268.63;4963839;28;20038;-73
2021/08/31 10:47:07;;;;;;;0.98;0.70;;;;;;;32.39;23.69;100264.56;4963183;28;20066;-73
2021/08/31 10:49:58;;;;;;;2.05;0.65;;;;;;;33.73;22.72;100270.94;4963359;28;20381;-73
2021/08/31 10:52:43;;;;;;;0.57;0.57;;;;;;;32.76;23.21;100262.44;4963547;28;20038;-74
2021/08/31 10:55:24;;;;;;;1.35;0.75;;;;;;;32.54;23.91;100265.16;4963386;28;20438;-72
2021/08/31 10:57:54;;;;;;;0.68;0.57;;;;;;;32.15;23.99;100262.78;4963088;28;20035;-75
2021/08/31 11:00:19;;;;;;;4.68;0.77;;;;;;;32.47;23.67;100268.53;4963147;28;20482;-73
2021/08/31 11:05:26;;;;;;;0.70;0.63;;;;;;;32.91;23.49;100261.47;4977831;28;20027;-72
2021/08/31 11:08:13;;;;;;;1.00;0.60;;;;;;;33.22;23.71;100261.34;4960235;28;20102;-73
2021/08/31 11:10:43;;;;;;;0.68;0.57;;;;;;;31.97;25.41;100260.28;4958792;28;20122;-74
2021/08/31 11:13:22;;;;;;;1.13;0.88;;;;;;;33.23;24.51;100260.03;4977705;28;20037;-73
2021/08/31 11:15:49;;;;;;;1.92;1.27;;;;;;;33.51;23.89;100256.50;4959767;28;20042;-74
2021/08/31 11:18:16;;;;;;;0.88;0.68;;;;;;;32.82;25.01;100251.72;4959662;28;20046;-73
2021/08/31 11:20:45;;;;;;;1.13;1.02;;;;;;;32.64;24.28;100249.25;4959928;28;20051;-73
2021/08/31 11:23:19;;;;;;;0.50;0.50;;;;;;;32.70;24.05;100250.06;4976714;28;20533;-74
2021/08/31 11:25:55;;;;;;;0.70;0.70;;;;;;;32.64;23.82;100249.25;4959585;28;20043;-74
2021/08/31 11:28:31;;;;;;;0.70;0.63;;;;;;;32.73;24.14;100251.94;4959781;28;20022;-73